Time;durP1;ratioP1;P1;durP2;ratioP2;P2;SDS_P1;SDS_P2;PMS_P1;PMS_P2;Temp;Humidity;BMP_temperature;BMP_pressure;BME280_temperature;BME280_humidity;BME280_pressure;Samples;Min_cycle;Max_cycle;Signal;HPM_P1;HPM_P2
2024/01/02 00:00:38;;;;;;;10.15;3.50;;;10.30;99.90;;;;;;5095266;28;20024;-71
2024/01/02 00:03:04;;;;;;;9.88;3.47;;;10.60;99.90;;;;;;5095709;28;20054;-71
2024/01/02 00:05:30;;;;;;;13.85;5.10;;;10.80;99.90;;;;;;5095179;28;20032;-71
2024/01/02 00:07:55;;;;;;;13.48;4.18;;;10.80;99.90;;;;;;5095140;28;20035;-71
2024/01/02 00:10:22;;;;;;;13.90;4.22;;;10.80;99.90;;;;;;5094956;28;20058;-71
2024/01/02 00:12:47;;;;;;;12.85;4.07;;;10.80;99.90;;;;;;5094944;28;20111;-71
2024/01/02 00:15:13;;;;;;;13.85;3.90;;;10.90;99.90;;;;;;5095104;28;20103;-72
2024/01/02 00:17:39;;;;;;;11.32;4.05;;;10.90;99.90;;;;;;5094813;28;20378;-72
2024/01/02 00:20:05;;;;;;;10.50;3.55;;;10.90;99.90;;;;;;5094330;28;20407;-72
2024/01/02 00:22:32;;;;;;;10.85;4.15;;;10.80;99.90;;;;;;5095002;28;20019;-71
2024/01/02 00:24:58;;;;;;;10.80;3.80;;;10.70;99.90;;;;;;5094390;28;20043;-71
2024/01/02 00:27:24;;;;;;;11.82;4.18;;;10.60;99.90;;;;;;5094757;28;20044;-71
2024/01/02 00:29:50;;;;;;;14.05;3.83;;;10.50;99.90;;;;;;5094782;28;20393;-71
2024/01/02 00:32:15;;;;;;;12.20;4.05;;;10.40;99.90;;;;;;5094949;28;20028;-72
2024/01/02 00:34:41;;;;;;;11.23;3.85;;;10.40;99.90;;;;;;5094666;28;20017;-72
2024/01/02 00:37:07;;;;;;;10.88;3.45;;;10.40;99.90;;;;;;5094529;28;20038;-72
2024/01/02 00:39:32;;;;;;;9.82;3.80;;;10.30;99.90;;;;;;5094193;28;20048;-72
2024/01/02 00:41:58;;;;;;;11.10;3.63;;;10.30;99.90;;;;;;5094454;28;20036;-72
2024/01/02 00:44:23;;;;;;;10.40;3.90;;;10.30;99.90;;;;;;5094349;28;20024;-72
2024/01/02 00:46:49;;;;;;;9.32;3.83;;;10.30;99.90;;;;;;5094228;28;20075;-71
2024/01/02 00:49:15;;;;;;;9.95;3.55;;;10.30;99.90;;;;;;5094370;28;20069;-72
2024/01/02 00:51:40;;;;;;;10.02;3.45;;;10.30;99.90;;;;;;5094290;28;20443;-71
2024/01/02 00:54:06;;;;;;;9.20;3.78;;;10.20;99.90;;;;;;5094006;28;20130;-72
2024/01/02 00:56:32;;;;;;;9.45;3.75;;;10.30;99.90;;;;;;5094386;28;20028;-72
2024/01/02 00:58:57;;;;;;;9.52;3.33;;;10.20;99.90;;;;;;5094372;28;20047;-72
2024/01/02 01:01:23;;;;;;;11.90;3.80;;;10.20;99.90;;;;;;5094146;28;20024;-72
2024/01/02 01:03:48;;;;;;;12.75;4.07;;;10.20;99.90;;;;;;5094355;28;20050;-71
2024/01/02 01:06:14;;;;;;;11.68;3.88;;;10.20;99.90;;;;;;5093956;28;20458;-72
2024/01/02 01:08:40;;;;;;;9.68;3.83;;;10.20;99.90;;;;;;5093614;28;20012;-71
2024/01/02 01:11:05;;;;;;;10.65;3.38;;;10.30;99.90;;;;;;5094028;28;20047;-72
2024/01/02 01:13:31;;;;;;;11.00;3.58;;;10.20;99.90;;;;;;5093882;28;20398;-72
2024/01/02 01:15:56;;;;;;;11.30;3.88;;;10.20;99.90;;;;;;5094176;28;20032;-72
2024/01/02 01:18:22;;;;;;;9.80;3.10;;;10.20;99.90;;;;;;5093746;28;20027;-71
2024/01/02 01:20:48;;;;;;;10.05;3.40;;;10.20;99.90;;;;;;5093800;28;20032;-72
2024/01/02 01:23:13;;;;;;;10.77;3.50;;;10.20;99.90;;;;;;5093780;28;20028;-71
2024/01/02 01:25:39;;;;;;;9.30;3.08;;;10.20;99.90;;;;;;5092257;28;20042;-72
2024/01/02 01:28:05;;;;;;;7.22;3.03;;;10.20;99.90;;;;;;5093573;28;20035;-72
2024/01/02 01:30:31;;;;;;;8.57;3.00;;;10.20;99.90;;;;;;5093304;28;20434;-71
2024/01/02 01:32:56;;;;;;;8.43;3.03;;;10.20;99.90;;;;;;5093607;28;20107;-72
2024/01/02 01:35:22;;;;;;;6.53;3.55;;;10.20;99.90;;;;;;5093405;28;20111;-71
2024/01/02 01:37:48;;;;;;;6.88;3.30;;;10.20;99.90;;;;;;5093070;28;20035;-72
2024/01/02 01:40:13;;;;;;;8.02;3.20;;;10.20;99.90;;;;;;5092285;28;20032;-72
2024/01/02 01:42:39;;;;;;;7.43;3.05;;;10.20;99.90;;;;;;5093377;28;20017;-72
2024/01/02 01:45:05;;;;;;;10.73;3.72;;;10.20;99.90;;;;;;5093133;28;20097;-71
2024/01/02 01:47:31;;;;;;;8.07;3.10;;;10.20;99.90;;;;;;5093030;28;20058;-72
2024/01/02 01:49:57;;;;;;;9.13;3.00;;;10.30;99.90;;;;;;5093248;28;20107;-71
2024/01/02 01:52:24;;;;;;;9.90;3.45;;;10.50;99.90;;;;;;5092765;28;20036;-71
2024/01/02 01:54:50;;;;;;;12.68;3.58;;;10.70;99.90;;;;;;5093148;28;20023;-71
2024/01/02 01:57:17;;;;;;;8.88;3.30;;;10.80;99.90;;;;;;5093165;28;20031;-71
2024/01/02 01:59:44;;;;;;;11.63;3.20;;;10.90;99.90;;;;;;5093020;28;20395;-71
2024/01/02 02:02:11;;;;;;;9.05;3.22;;;11.00;99.90;;;;;;5093050;28;20020;-71
2024/01/02 02:04:44;;;;;;;9.10;3.13;;;11.10;99.90;;;;;;5092935;28;20016;-72
2024/01/02 02:07:10;;;;;;;7.90;3.45;;;11.00;99.90;;;;;;5092439;28;20478;-72
2024/01/02 02:09:36;;;;;;;9.77;3.72;;;11.00;99.90;;;;;;5092886;28;20115;-72
2024/01/02 02:12:02;;;;;;;10.45;3.45;;;10.90;99.90;;;;;;5091729;28;20464;-72
2024/01/02 02:14:28;;;;;;;7.68;3.00;;;10.80;99.90;;;;;;5092721;28;20020;-72
2024/01/02 02:16:54;;;;;;;9.15;3.38;;;10.70;99.90;;;;;;5092768;28;20038;-72
2024/01/02 02:19:19;;;;;;;9.85;3.17;;;10.70;99.90;;;;;;5092666;28;20059;-72
2024/01/02 02:21:47;;;;;;;7.72;3.38;;;10.60;99.90;;;;;;5092730;28;20027;-72
2024/01/02 02:24:13;;;;;;;8.80;3.35;;;10.60;99.90;;;;;;5092487;28;20024;-73
2024/01/02 02:26:38;;;;;;;8.07;3.10;;;10.60;99.90;;;;;;5092368;28;20535;-73
2024/01/02 02:29:04;;;;;;;7.95;3.03;;;10.50;99.90;;;;;;5092987;28;20038;-72
2024/01/02 02:31:30;;;;;;;9.05;3.05;;;10.50;99.90;;;;;;5092332;28;20058;-72
2024/01/02 02:33:56;;;;;;;9.82;3.28;;;10.50;99.90;;;;;;5092402;28;20486;-72
2024/01/02 02:36:22;;;;;;;8.10;3.22;;;10.40;99.90;;;;;;5092424;28;20032;-72
2024/01/02 02:38:47;;;;;;;9.18;3.25;;;10.40;99.90;;;;;;5091877;28;20029;-72
2024/01/02 02:41:13;;;;;;;12.02;3.60;;;10.40;99.90;;;;;;5092082;28;20035;-72
2024/01/02 02:43:38;;;;;;;8.23;3.20;;;10.30;99.90;;;;;;5091930;28;20391;-72
2024/01/02 02:46:04;;;;;;;7.95;2.95;;;10.30;99.90;;;;;;5091872;28;20529;-72
2024/01/02 02:48:30;;;;;;;9.65;3.10;;;10.30;99.90;;;;;;5092580;28;20443;-72
2024/01/02 02:50:55;;;;;;;8.55;3.30;;;10.30;99.90;;;;;;5091453;28;20447;-72
2024/01/02 02:53:21;;;;;;;12.45;3.40;;;10.30;99.90;;;;;;5092633;28;20109;-72
2024/01/02 02:55:47;;;;;;;9.13;3.38;;;10.20;99.90;;;;;;5092189;28;20027;-72
2024/01/02 02:58:12;;;;;;;8.38;3.30;;;10.20;99.90;;;;;;5092171;28;20028;-72
2024/01/02 03:00:38;;;;;;;7.38;2.85;;;10.20;99.90;;;;;;5091958;28;20035;-72
2024/01/02 03:03:04;;;;;;;9.68;3.65;;;10.20;99.90;;;;;;5092621;28;20024;-72
2024/01/02 03:05:30;;;;;;;9.18;3.20;;;10.20;99.90;;;;;;5091646;28;20032;-72
2024/01/02 03:07:57;;;;;;;9.55;3.38;;;10.20;99.90;;;;;;5092032;28;20058;-72
2024/01/02 03:10:24;;;;;;;10.02;3.95;;;10.20;99.90;;;;;;5092035;28;20032;-72
2024/01/02 03:12:49;;;;;;;8.18;3.33;;;10.20;99.90;;;;;;5091989;28;20024;-72
2024/01/02 03:15:15;;;;;;;10.13;3.35;;;10.20;99.90;;;;;;5092297;28;20377;-72
2024/01/02 03:17:41;;;;;;;11.57;3.70;;;10.20;99.90;;;;;;5091609;28;20490;-72
2024/01/02 03:20:07;;;;;;;12.50;3.72;;;10.20;99.90;;;;;;5091903;28;20687;-72
2024/01/02 03:22:33;;;;;;;12.20;3.63;;;10.20;99.90;;;;;;5091939;28;20486;-72
2024/01/02 03:24:59;;;;;;;12.88;3.47;;;10.20;99.90;;;;;;5091863;28;20084;-72
2024/01/02 03:27:24;;;;;;;11.95;3.67;;;10.20;99.90;;;;;;5092090;28;20040;-72
2024/01/02 03:29:50;;;;;;;9.95;3.30;;;10.20;99.90;;;;;;5091917;28;20031;-72
2024/01/02 03:32:15;;;;;;;9.73;3.60;;;10.10;99.90;;;;;;5091516;28;20417;-71
2024/01/02 03:34:41;;;;;;;13.02;3.65;;;10.20;99.90;;;;;;5091824;28;20020;-71
2024/01/02 03:37:08;;;;;;;9.93;4.15;;;10.20;99.90;;;;;;5092148;28;20024;-72
2024/01/02 03:39:33;;;;;;;11.05;3.50;;;10.60;99.90;;;;;;5091418;28;20032;-72
2024/01/02 03:41:59;;;;;;;10.60;3.75;;;10.80;99.90;;;;;;5091503;28;20405;-72
2024/01/02 03:44:25;;;;;;;12.27;4.22;;;10.70;99.90;;;;;;5091680;28;20039;-72
2024/01/02 03:46:51;;;;;;;11.30;3.60;;;10.90;99.90;;;;;;5091164;28;20048;-71
2024/01/02 03:49:17;;;;;;;12.05;4.05;;;10.80;99.90;;;;;;5092022;28;20389;-72
2024/01/02 03:51:43;;;;;;;17.38;4.20;;;10.90;99.90;;;;;;5091742;28;20024;-71
2024/01/02 03:54:08;;;;;;;15.57;4.10;;;10.80;99.90;;;;;;5095095;28;20020;-72
2024/01/02 03:56:34;;;;;;;15.90;4.40;;;10.90;99.90;;;;;;5095500;28;20039;-72
2024/01/02 03:59:00;;;;;;;13.60;4.25;;;10.90;99.90;;;;;;5095700;28;20542;-72
2024/01/02 04:01:25;;;;;;;14.77;4.78;;;10.70;99.90;;;;;;5094773;28;20052;-72
2024/01/02 04:03:51;;;;;;;13.88;4.03;;;10.70;99.90;;;;;;5095347;28;20028;-72
2024/01/02 04:06:17;;;;;;;13.23;4.20;;;10.60;99.90;;;;;;5093905;28;20107;-72
2024/01/02 04:08:42;;;;;;;13.60;4.28;;;10.60;99.90;;;;;;5095031;28;20039;-72
2024/01/02 04:11:08;;;;;;;13.95;4.15;;;10.50;99.90;;;;;;5095586;28;20093;-72
2024/01/02 04:13:34;;;;;;;13.77;4.30;;;10.50;99.90;;;;;;5094443;28;20110;-73
2024/01/02 04:15:59;;;;;;;13.23;4.10;;;10.50;99.90;;;;;;5095020;28;20470;-72
2024/01/02 04:18:25;;;;;;;14.18;4.47;;;10.50;99.90;;;;;;5094998;28;20111;-72
2024/01/02 04:20:51;;;;;;;17.55;5.07;;;10.50;99.90;;;;;;5094811;28;20047;-72
2024/01/02 04:23:16;;;;;;;12.68;4.15;;;10.50;99.90;;;;;;5095263;28;20028;-73
2024/01/02 04:25:42;;;;;;;15.20;3.90;;;10.60;99.90;;;;;;5094804;28;20023;-72
2024/01/02 04:28:08;;;;;;;15.25;4.63;;;10.60;99.90;;;;;;5094462;28;20047;-72
2024/01/02 04:30:34;;;;;;;13.05;3.88;;;10.60;99.90;;;;;;5094513;28;20102;-72
2024/01/02 04:33:00;;;;;;;11.15;3.95;;;10.60;99.90;;;;;;5094274;28;20032;-72
2024/01/02 04:35:25;;;;;;;17.42;4.35;;;10.60;99.90;;;;;;5094992;28;20482;-72
2024/01/02 04:37:51;;;;;;;15.43;4.82;;;10.60;99.90;;;;;;5094664;28;20020;-72
2024/01/02 04:40:17;;;;;;;12.23;4.30;;;10.60;99.90;;;;;;5094289;28;20024;-72
2024/01/02 04:42:43;;;;;;;14.45;3.90;;;10.60;99.90;;;;;;5093222;28;20103;-73
2024/01/02 04:45:09;;;;;;;13.23;3.97;;;10.70;99.90;;;;;;5094376;28;20123;-72
2024/01/02 04:47:35;;;;;;;12.80;4.05;;;10.60;99.90;;;;;;5094230;28;20040;-72
2024/01/02 04:50:01;;;;;;;12.60;3.88;;;10.70;99.90;;;;;;5094740;28;20032;-72
2024/01/02 04:52:27;;;;;;;10.20;4.03;;;10.70;99.90;;;;;;5094378;28;20039;-72
2024/01/02 04:54:52;;;;;;;12.52;3.65;;;10.80;99.90;;;;;;5094155;28;20383;-72
2024/01/02 04:57:18;;;;;;;15.18;4.45;;;10.80;99.90;;;;;;5094297;28;20020;-72
2024/01/02 04:59:44;;;;;;;12.55;4.30;;;10.80;99.90;;;;;;5093949;28;20107;-72
2024/01/02 05:02:10;;;;;;;14.18;4.40;;;10.70;99.90;;;;;;5094095;28;20031;-73
2024/01/02 05:04:36;;;;;;;14.45;4.32;;;10.80;99.90;;;;;;5093867;28;20050;-72
2024/01/02 05:07:02;;;;;;;17.15;4.65;;;10.80;99.90;;;;;;5094002;28;20494;-72
2024/01/02 05:09:28;;;;;;;13.48;4.28;;;10.70;99.90;;;;;;5093845;28;20051;-72
2024/01/02 05:11:54;;;;;;;16.88;4.22;;;10.80;99.90;;;;;;5094317;28;20070;-72
2024/01/02 05:14:20;;;;;;;15.77;3.60;;;10.70;99.90;;;;;;5093453;28;20107;-72
2024/01/02 05:16:46;;;;;;;13.02;3.92;;;10.80;99.90;;;;;;5093860;28;20523;-72
2024/01/02 05:19:11;;;;;;;11.90;4.20;;;10.70;99.90;;;;;;5093829;28;20530;-72
2024/01/02 05:21:37;;;;;;;13.85;3.72;;;10.70;99.90;;;;;;5094110;28;20447;-72
2024/01/02 05:24:03;;;;;;;12.50;3.50;;;10.70;99.90;;;;;;5093776;28;20024;-72
2024/01/02 05:26:29;;;;;;;15.68;3.95;;;10.70;99.90;;;;;;5093535;28;20470;-72
2024/01/02 05:28:54;;;;;;;11.60;3.70;;;10.80;99.90;;;;;;5093342;28;20119;-71
2024/01/02 05:31:20;;;;;;;13.85;4.10;;;10.90;99.90;;;;;;5093494;28;20032;-72
2024/01/02 05:33:45;;;;;;;15.13;3.72;;;11.10;99.90;;;;;;5093431;28;20028;-72
2024/01/02 05:36:11;;;;;;;15.23;4.03;;;11.10;99.90;;;;;;5093500;28;20035;-72
2024/01/02 05:38:37;;;;;;;12.18;3.83;;;11.20;99.90;;;;;;5093369;28;20039;-72
2024/01/02 05:41:02;;;;;;;11.85;4.25;;;11.20;99.90;;;;;;5093775;28;20084;-71
2024/01/02 05:43:28;;;;;;;11.50;3.15;;;11.30;99.90;;;;;;5092908;28;20048;-71
2024/01/02 05:45:54;;;;;;;9.10;3.15;;;11.40;99.90;;;;;;5093125;28;20056;-72
2024/01/02 05:48:19;;;;;;;8.80;3.08;;;11.40;99.90;;;;;;5093795;28;20089;-72
2024/01/02 05:50:45;;;;;;;13.60;3.55;;;11.30;99.90;;;;;;5093182;28;20439;-72
2024/01/02 05:53:10;;;;;;;10.77;3.55;;;11.10;99.90;;;;;;5093160;28;20447;-72
2024/01/02 05:55:36;;;;;;;12.40;3.50;;;10.90;99.90;;;;;;5092995;28;20020;-72
2024/01/02 05:58:02;;;;;;;8.57;2.95;;;10.90;99.90;;;;;;5093147;28;20027;-72
2024/01/02 06:00:28;;;;;;;9.43;3.38;;;10.80;99.90;;;;;;5093083;28;20072;-72
2024/01/02 06:02:53;;;;;;;8.18;2.92;;;10.80;99.90;;;;;;5092852;28;20024;-72
2024/01/02 06:05:19;;;;;;;12.30;3.40;;;10.70;99.90;;;;;;5093005;28;20032;-72
2024/01/02 06:07:45;;;;;;;12.00;3.28;;;10.70;99.90;;;;;;5092845;28;20126;-72
2024/01/02 06:10:12;;;;;;;11.73;3.13;;;10.60;99.90;;;;;;5092859;28;20020;-72
2024/01/02 06:12:37;;;;;;;11.27;3.38;;;10.60;99.90;;;;;;5092858;28;20046;-72
2024/01/02 06:15:04;;;;;;;9.80;2.90;;;10.60;99.90;;;;;;5092876;28;20020;-72
2024/01/02 06:17:29;;;;;;;8.85;2.80;;;10.70;99.90;;;;;;5091792;28;20039;-72
2024/01/02 06:19:55;;;;;;;12.38;2.97;;;10.60;99.90;;;;;;5092838;28;20055;-72
2024/01/02 06:22:22;;;;;;;7.72;2.80;;;10.60;99.90;;;;;;5092530;28;20482;-72
2024/01/02 06:24:48;;;;;;;7.45;2.67;;;10.60;99.90;;;;;;5092426;28;20028;-72
2024/01/02 06:27:13;;;;;;;11.10;3.03;;;10.60;99.90;;;;;;5092546;28;20051;-71
2024/01/02 06:29:39;;;;;;;7.65;2.75;;;10.60;99.90;;;;;;5092641;28;20027;-72
2024/01/02 06:32:06;;;;;;;12.65;3.00;;;10.60;99.90;;;;;;5092648;28;20394;-72
2024/01/02 06:34:31;;;;;;;8.32;2.60;;;10.60;99.90;;;;;;5092465;28;20486;-72
2024/01/02 06:36:57;;;;;;;8.40;2.78;;;10.60;99.90;;;;;;5092727;28;20020;-72
2024/01/02 06:39:23;;;;;;;8.68;2.90;;;10.60;99.90;;;;;;5092295;28;20020;-72
2024/01/02 06:41:49;;;;;;;8.13;2.80;;;10.50;99.90;;;;;;5091875;28;20024;-72
2024/01/02 06:44:14;;;;;;;8.95;2.90;;;10.50;99.90;;;;;;5092253;28;20024;-72
2024/01/02 06:46:40;;;;;;;10.55;2.70;;;10.50;99.90;;;;;;5092082;28;20513;-72
2024/01/02 06:49:06;;;;;;;7.85;2.60;;;10.50;99.90;;;;;;5092286;28;20020;-72
2024/01/02 06:51:31;;;;;;;9.60;3.08;;;10.50;99.90;;;;;;5092148;28;20028;-72
2024/01/02 06:53:57;;;;;;;7.28;2.85;;;10.50;99.90;;;;;;5092508;28;20393;-72
2024/01/02 06:56:23;;;;;;;13.35;3.08;;;10.50;99.90;;;;;;5091967;28;20035;-72
2024/01/02 06:58:48;;;;;;;9.40;3.20;;;10.50;99.90;;;;;;5092146;28;20379;-72
2024/01/02 07:01:15;;;;;;;9.80;2.53;;;10.50;99.90;;;;;;5092060;28;20039;-72
2024/01/02 07:03:41;;;;;;;9.68;2.78;;;10.50;99.90;;;;;;5092086;28;20021;-72
2024/01/02 07:06:07;;;;;;;7.60;2.72;;;10.50;99.90;;;;;;5091933;28;20158;-72
2024/01/02 07:08:32;;;;;;;10.00;3.30;;;10.50;99.90;;;;;;5092728;28;20020;-71
2024/01/02 07:10:58;;;;;;;8.75;3.20;;;10.50;99.90;;;;;;5091660;28;20028;-72
2024/01/02 07:13:24;;;;;;;8.90;2.97;;;10.50;99.90;;;;;;5091953;28;20117;-71
2024/01/02 07:15:50;;;;;;;8.07;2.80;;;10.50;99.90;;;;;;5091998;28;20440;-71
2024/01/02 07:18:16;;;;;;;9.07;2.78;;;10.50;99.90;;;;;;5092475;28;20095;-71
2024/01/02 07:20:41;;;;;;;7.53;2.75;;;10.70;99.90;;;;;;5091785;28;20221;-71
2024/01/02 07:23:07;;;;;;;8.25;2.92;;;10.80;99.90;;;;;;5092150;28;20024;-71
2024/01/02 07:25:33;;;;;;;7.43;2.80;;;11.00;99.90;;;;;;5091617;28;20032;-71
2024/01/02 07:27:58;;;;;;;5.28;2.28;;;11.10;99.90;;;;;;5094032;28;20036;-71
2024/01/02 07:30:24;;;;;;;10.15;3.20;;;11.10;99.90;;;;;;5096030;28;20473;-74
2024/01/02 07:32:49;;;;;;;7.25;2.60;;;11.20;99.90;;;;;;5095899;28;20094;-74
2024/01/02 07:35:15;;;;;;;6.57;3.08;;;11.30;99.90;;;;;;5096009;28;20386;-75
2024/01/02 07:37:41;;;;;;;8.80;2.63;;;11.20;99.90;;;;;;5095979;28;20530;-74
2024/01/02 07:40:07;;;;;;;8.43;3.53;;;11.10;99.90;;;;;;5095273;28;20052;-75
2024/01/02 07:42:33;;;;;;;7.35;3.22;;;10.90;99.90;;;;;;5095839;28;20016;-74
2024/01/02 07:44:59;;;;;;;5.68;2.80;;;10.80;99.90;;;;;;5095397;28;20122;-74
2024/01/02 07:47:25;;;;;;;9.50;2.88;;;10.70;99.90;;;;;;5095652;28;20594;-71
2024/01/02 07:49:51;;;;;;;7.10;3.30;;;10.60;99.90;;;;;;5095429;28;20020;-72
2024/01/02 07:52:18;;;;;;;6.25;3.05;;;10.50;99.90;;;;;;5095938;28;20046;-72
2024/01/02 07:54:44;;;;;;;7.78;3.28;;;10.50;99.90;;;;;;5094878;28;20498;-72
2024/01/02 07:57:09;;;;;;;7.07;3.35;;;10.40;99.90;;;;;;5095718;28;20070;-72
2024/01/02 07:59:35;;;;;;;7.15;3.30;;;10.40;99.90;;;;;;5095386;28;20575;-72
2024/01/02 08:02:01;;;;;;;7.38;3.03;;;10.40;99.90;;;;;;5095199;28;20073;-72
2024/01/02 08:04:27;;;;;;;8.68;2.80;;;10.40;99.90;;;;;;5095257;28;20078;-72
2024/01/02 08:06:53;;;;;;;8.80;3.08;;;10.40;99.90;;;;;;5095098;28;20421;-72
2024/01/02 08:09:18;;;;;;;6.88;2.75;;;10.40;99.90;;;;;;5095333;28;20020;-72
2024/01/02 08:11:44;;;;;;;6.50;2.45;;;10.50;99.90;;;;;;5095120;28;20020;-72
2024/01/02 08:14:14;;;;;;;5.28;2.63;;;10.50;99.90;;;;;;5094953;28;20436;-72
2024/01/02 08:16:40;;;;;;;5.20;2.38;;;10.50;99.90;;;;;;5094967;28;20024;-72
2024/01/02 08:19:07;;;;;;;5.85;2.40;;;10.40;99.90;;;;;;5095065;28;20032;-72
2024/01/02 08:21:33;;;;;;;5.03;2.30;;;10.40;99.90;;;;;;5094984;28;20020;-72
2024/01/02 08:23:59;;;;;;;5.00;2.55;;;10.40;99.90;;;;;;5094929;28;20047;-71
2024/01/02 08:26:24;;;;;;;4.07;2.40;;;10.40;99.90;;;;;;5094653;28;20036;-72
2024/01/02 08:28:50;;;;;;;8.73;2.58;;;10.40;99.90;;;;;;5095062;28;20099;-72
2024/01/02 08:31:16;;;;;;;4.07;2.20;;;10.40;99.90;;;;;;5093632;28;20031;-72
2024/01/02 08:33:42;;;;;;;6.35;2.15;;;10.50;99.90;;;;;;5094637;28;20032;-72
2024/01/02 08:36:10;;;;;;;5.95;2.10;;;10.50;99.90;;;;;;5094628;28;20028;-72
2024/01/02 08:38:35;;;;;;;6.43;2.35;;;10.50;99.90;;;;;;5093664;28;20028;-72
2024/01/02 08:41:01;;;;;;;5.90;2.20;;;10.50;99.90;;;;;;5093985;28;20031;-72
2024/01/02 08:43:27;;;;;;;7.55;2.58;;;10.50;99.90;;;;;;5094824;28;20032;-72
2024/01/02 08:45:53;;;;;;;6.45;2.50;;;10.50;99.90;;;;;;5094557;28;20082;-72
2024/01/02 08:48:18;;;;;;;6.85;2.85;;;10.50;99.90;;;;;;5094397;28;20482;-72
2024/01/02 08:50:45;;;;;;;6.95;2.83;;;10.50;99.90;;;;;;5094220;28;20461;-72
2024/01/02 08:53:12;;;;;;;8.27;2.63;;;10.50;99.90;;;;;;5094426;28;20035;-72
2024/01/02 08:55:38;;;;;;;6.13;2.45;;;10.50;99.90;;;;;;5094186;28;20451;-72
2024/01/02 08:58:04;;;;;;;6.40;2.67;;;10.60;99.90;;;;;;5094200;28;20016;-73
2024/01/02 09:00:30;;;;;;;7.88;2.67;;;10.60;99.90;;;;;;5093015;28;20024;-73
2024/01/02 09:02:57;;;;;;;6.15;2.50;;;10.60;99.90;;;;;;5094592;28;20020;-73
2024/01/02 09:05:22;;;;;;;9.35;3.65;;;10.60;99.90;;;;;;5094095;28;20028;-73
2024/01/02 09:07:48;;;;;;;7.70;2.70;;;10.70;99.90;;;;;;5093569;28;20036;-72
2024/01/02 09:10:13;;;;;;;10.80;3.20;;;11.00;99.90;;;;;;5094225;28;20028;-72
2024/01/02 09:12:39;;;;;;;9.50;2.70;;;11.10;99.90;;;;;;5093901;28;20027;-72
2024/01/02 09:15:06;;;;;;;5.60;2.47;;;11.30;99.90;;;;;;5094744;28;20395;-72
2024/01/02 09:17:32;;;;;;;6.57;2.30;;;11.60;99.90;;;;;;5093739;28;20028;-73
2024/01/02 09:19:58;;;;;;;7.40;2.50;;;11.60;99.90;;;;;;5093813;28;20036;-72
2024/01/02 09:22:24;;;;;;;7.13;2.42;;;11.60;99.90;;;;;;5093665;28;20024;-73
2024/01/02 09:24:51;;;;;;;6.78;2.30;;;11.70;99.90;;;;;;5093609;28;20470;-73
2024/01/02 09:27:18;;;;;;;6.32;2.30;;;11.80;99.90;;;;;;5093550;28;20198;-73
2024/01/02 09:29:44;;;;;;;6.72;2.30;;;11.70;99.90;;;;;;5094051;28;20040;-73
2024/01/02 09:32:10;;;;;;;6.53;2.63;;;11.60;99.90;;;;;;5093576;28;20070;-73
2024/01/02 09:34:37;;;;;;;7.10;2.60;;;11.50;99.90;;;;;;5093915;28;20024;-73
2024/01/02 09:37:04;;;;;;;7.15;2.53;;;11.40;99.90;;;;;;5093235;28;20077;-73
2024/01/02 09:39:30;;;;;;;7.93;2.63;;;11.40;99.90;;;;;;5093692;28;20016;-73
2024/01/02 09:42:19;;;;;;;7.75;2.45;;;11.40;99.90;;;;;;5093359;28;20111;-73
2024/01/02 09:44:48;;;;;;;7.28;2.35;;;11.40;99.90;;;;;;5093207;28;20520;-73
2024/01/02 09:47:34;;;;;;;5.63;1.95;;;11.30;99.90;;;;;;5093381;28;20036;-73
2024/01/02 09:50:09;;;;;;;7.25;2.72;;;11.30;99.90;;;;;;5092664;28;20051;-73
2024/01/02 09:52:54;;;;;;;6.57;2.15;;;11.30;99.90;;;;;;5093224;28;20085;-72
2024/01/02 09:55:52;;;;;;;6.97;2.70;;;11.30;99.90;;;;;;5093216;28;20477;-73
2024/01/02 09:58:36;;;;;;;8.32;2.40;;;11.30;99.90;;;;;;5093142;28;20028;-73
2024/01/02 10:01:37;;;;;;;5.55;2.05;;;11.30;99.90;;;;;;5092949;28;20099;-73
2024/01/02 10:04:22;;;;;;;4.90;2.25;;;11.30;99.90;;;;;;5092560;28;20140;-73
2024/01/02 10:07:24;;;;;;;4.90;1.92;;;11.30;99.90;;;;;;5092903;28;20422;-73
2024/01/02 10:10:00;;;;;;;6.75;2.30;;;11.30;99.90;;;;;;5092888;28;20478;-72
2024/01/02 10:12:45;;;;;;;6.22;2.38;;;11.40;99.90;;;;;;5092926;28;20472;-73
2024/01/02 10:15:27;;;;;;;5.43;2.35;;;11.40;99.90;;;;;;5092507;28;20025;-73
2024/01/02 10:18:04;;;;;;;6.28;2.40;;;11.40;99.90;;;;;;5093278;28;20073;-73
2024/01/02 10:20:37;;;;;;;6.82;2.20;;;11.50;99.90;;;;;;5092422;28;20020;-73
2024/01/02 10:23:21;;;;;;;;;;;11.50;99.90;;;;;;5093195;28;20035;-73
2024/01/02 10:25:53;;;;;;;5.03;2.13;;;11.50;99.90;;;;;;5092632;28;20358;-73
2024/01/02 10:28:27;;;;;;;6.18;2.10;;;11.50;99.90;;;;;;5092681;28;20047;-73
2024/01/02 10:31:08;;;;;;;5.95;2.33;;;11.50;99.90;;;;;;5092533;28;20020;-73
2024/01/02 10:33:44;;;;;;;6.65;2.47;;;11.50;99.90;;;;;;5092105;28;20035;-73
2024/01/02 10:36:11;;;;;;;5.85;2.25;;;11.50;99.90;;;;;;5092829;28;20012;-73
2024/01/02 10:38:55;;;;;;;4.63;1.90;;;11.50;99.90;;;;;;5092336;28;20024;-73
2024/01/02 10:41:21;;;;;;;;;;;11.50;99.90;;;;;;5092721;28;20027;-73
2024/01/02 10:44:06;;;;;;;8.80;1.90;;;11.50;99.90;;;;;;5092277;28;19908;-73
2024/01/02 10:47:00;;;;;;;3.58;1.70;;;11.50;99.90;;;;;;5091754;28;20044;-73
2024/01/02 10:49:49;;;;;;;3.42;1.60;;;11.60;99.90;;;;;;5090387;28;20036;-73
2024/01/02 10:52:25;;;;;;;4.03;1.50;;;11.60;99.90;;;;;;5092276;28;20036;-72
2024/01/02 10:55:18;;;;;;;5.45;1.60;;;11.60;99.90;;;;;;5092090;28;20178;-73
2024/01/02 10:58:02;;;;;;;7.28;2.00;;;11.90;99.90;;;;;;5092221;28;20467;-72
2024/01/02 11:00:32;;;;;;;4.43;1.60;;;12.00;99.90;;;;;;5092594;28;20105;-72
2024/01/02 11:03:13;;;;;;;2.67;1.40;;;12.10;99.90;;;;;;5091596;28;20073;-72
2024/01/02 11:05:49;;;;;;;5.72;1.50;;;12.20;99.90;;;;;;5092517;28;20062;-72
2024/01/02 11:08:45;;;;;;;3.75;1.40;;;12.20;99.90;;;;;;5091976;28;20032;-72
2024/01/02 11:11:13;;;;;;;5.72;1.60;;;12.30;99.90;;;;;;5092111;28;20028;-73
2024/01/02 11:13:42;;;;;;;6.50;1.90;;;12.40;99.90;;;;;;5092367;28;20032;-73
2024/01/02 11:16:19;;;;;;;3.13;1.60;;;12.40;99.90;;;;;;5091952;28;20433;-73
2024/01/02 11:18:50;;;;;;;3.33;1.30;;;12.40;99.90;;;;;;5091778;28;20026;-73
2024/01/02 11:21:34;;;;;;;3.17;1.70;;;12.30;99.90;;;;;;5092104;28;20031;-73
2024/01/02 11:24:00;;;;;;;;;;;12.20;99.90;;;;;;5092607;28;20565;-73
2024/01/02 11:26:45;;;;;;;5.30;1.85;;;12.10;99.90;;;;;;5092103;28;20320;-73
2024/01/02 11:29:18;;;;;;;4.03;2.00;;;12.00;99.90;;;;;;5092009;28;20020;-73
2024/01/02 11:31:47;;;;;;;3.75;1.70;;;12.00;99.90;;;;;;5091553;28;20028;-73
2024/01/02 11:34:48;;;;;;;4.15;1.90;;;12.00;99.90;;;;;;5091823;28;20059;-73
2024/01/02 11:37:40;;;;;;;6.43;1.77;;;11.90;99.90;;;;;;5092311;28;20016;-73
2024/01/02 11:40:45;;;;;;;5.68;2.17;;;11.90;99.90;;;;;;5091540;28;20043;-73
2024/01/02 11:43:32;;;;;;;4.15;2.40;;;11.80;99.90;;;;;;5049121;28;20090;-72
2024/01/02 11:45:59;;;;;;;4.05;2.78;;;11.80;99.90;;;;;;5048731;28;20572;-73
2024/01/02 11:48:51;;;;;;;6.10;2.60;;;11.70;99.90;;;;;;5049278;28;20558;-72
2024/01/02 11:51:28;;;;;;;5.70;2.30;;;11.70;99.90;;;;;;5049646;28;20112;-73
2024/01/02 11:53:57;;;;;;;4.38;2.10;;;11.70;99.90;;;;;;5049197;28;20483;-73
2024/01/02 11:56:24;;;;;;;4.75;2.13;;;11.70;99.90;;;;;;5049254;28;20071;-73
2024/01/02 11:59:05;;;;;;;3.88;2.15;;;11.80;99.90;;;;;;5049352;28;20029;-74
2024/01/02 12:01:52;;;;;;;5.68;2.30;;;11.70;99.90;;;;;;5048783;28;20083;-73
2024/01/02 12:04:45;;;;;;;4.43;2.22;;;11.70;99.90;;;;;;5049214;28;20569;-73
2024/01/02 12:07:15;;;;;;;3.97;2.17;;;11.80;99.90;;;;;;5049337;28;20068;-73
2024/01/02 12:09:44;;;;;;;4.88;2.10;;;11.80;99.90;;;;;;5049047;28;20029;-73
2024/01/02 12:12:18;;;;;;;4.00;1.98;;;11.80;99.90;;;;;;5049075;28;20021;-73
2024/01/02 12:14:56;;;;;;;8.07;2.50;;;11.90;99.90;;;;;;5049757;28;20075;-73
2024/01/02 12:17:27;;;;;;;6.55;2.17;;;11.90;99.90;;;;;;5052594;28;20033;-73
2024/01/02 12:19:59;;;;;;;7.85;2.45;;;11.90;99.90;;;;;;5068661;28;20032;-73
2024/01/02 12:22:26;;;;;;;5.13;2.42;;;11.90;99.90;;;;;;5095031;28;20028;-73
2024/01/02 12:24:52;;;;;;;5.30;2.20;;;11.90;99.90;;;;;;5095197;28;20024;-73
2024/01/02 12:27:23;;;;;;;8.43;3.10;;;11.90;99.90;;;;;;5094303;28;20092;-74
2024/01/02 12:29:52;;;;;;;6.97;2.75;;;11.90;99.90;;;;;;5094764;28;20038;-73
2024/01/02 12:32:36;;;;;;;5.13;2.50;;;11.90;99.90;;;;;;5094693;28;20034;-73
2024/01/02 12:35:19;;;;;;;7.22;2.78;;;11.90;99.90;;;;;;5094632;28;20028;-73
2024/01/02 12:38:03;;;;;;;6.45;2.53;;;11.90;99.90;;;;;;5094699;28;20568;-73
2024/01/02 12:40:33;;;;;;;13.82;3.28;;;11.90;99.90;;;;;;5094245;28;20027;-72
2024/01/02 12:43:03;;;;;;;6.40;3.15;;;11.90;99.90;;;;;;5094598;28;20111;-72
2024/01/02 12:45:33;;;;;;;8.65;3.30;;;12.20;99.90;;;;;;5093951;28;20056;-73
2024/01/02 12:48:05;;;;;;;6.82;2.90;;;12.40;99.90;;;;;;5094841;28;20035;-72
2024/01/02 12:50:31;;;;;;;10.45;3.08;;;12.60;99.90;;;;;;5094515;28;20035;-72